createdAt,value
2018-12-27T00:00:37.390Z,27.10
2018-12-27T00:01:37.471Z,19.80
2018-12-27T00:02:37.380Z,14.10
2018-12-27T00:03:37.371Z,12.40
2018-12-27T00:04:37.392Z,13.80
2018-12-27T00:05:48.034Z,21.50
2018-12-27T00:06:37.635Z,17.30
2018-12-27T00:07:37.462Z,19.00
2018-12-27T00:08:37.414Z,22.80
2018-12-27T00:09:37.492Z,20.30
2018-12-27T00:10:45.499Z,17.10
2018-12-27T00:11:37.465Z,26.10
2018-12-27T00:12:37.424Z,19.40
2018-12-27T00:13:37.326Z,16.40
2018-12-27T00:14:37.469Z,18.00
2018-12-27T00:15:37.258Z,19.90
2018-12-27T00:16:37.253Z,22.90
2018-12-27T00:17:37.239Z,19.70
2018-12-27T00:18:37.267Z,8.70
2018-12-27T00:19:37.181Z,16.90
2018-12-27T00:20:37.232Z,16.30
2018-12-27T00:21:37.169Z,13.10
2018-12-27T00:22:37.168Z,19.70
2018-12-27T00:23:37.167Z,21.40
2018-12-27T00:24:37.157Z,9.50
2018-12-27T00:25:37.132Z,15.60
2018-12-27T00:26:37.104Z,17.40
2018-12-27T00:27:37.116Z,12.20
2018-12-27T00:28:37.097Z,12.70
2018-12-27T00:29:37.107Z,20.20
2018-12-27T00:30:37.074Z,15.50
2018-12-27T00:31:37.058Z,16.00
2018-12-27T00:32:37.057Z,14.10
2018-12-27T00:33:37.051Z,21.10
2018-12-27T00:34:37.055Z,9.70
2018-12-27T00:35:37.048Z,13.10
2018-12-27T00:36:37.020Z,14.10
2018-12-27T00:38:47.434Z,11.20
2018-12-27T00:39:47.428Z,10.10
2018-12-27T00:40:47.407Z,13.70
2018-12-27T00:41:47.306Z,15.20
2018-12-27T00:42:47.329Z,15.10
2018-12-27T00:43:47.229Z,17.70
2018-12-27T00:44:47.176Z,19.20
2018-12-27T00:45:47.157Z,12.60
2018-12-27T00:46:47.192Z,12.00
2018-12-27T00:47:47.165Z,17.60
2018-12-27T00:48:47.108Z,14.70
2018-12-27T00:49:47.127Z,12.90
2018-12-27T00:50:47.117Z,14.20
2018-12-27T00:51:47.119Z,13.00
2018-12-27T00:52:47.072Z,11.90
2018-12-27T00:53:47.064Z,11.20
2018-12-27T00:54:47.108Z,18.40
2018-12-27T00:55:47.029Z,17.80
2018-12-27T00:56:47.024Z,16.10
2018-12-27T00:57:47.005Z,16.90
2018-12-27T00:58:47.005Z,13.20
2018-12-27T00:59:47.066Z,13.50
2018-12-27T01:00:46.987Z,14.50
2018-12-27T01:01:46.971Z,11.30
2018-12-27T01:02:46.987Z,9.50
2018-12-27T01:03:46.969Z,11.30
2018-12-27T01:04:46.947Z,14.70
2018-12-27T01:05:47.021Z,10.50
2018-12-27T01:06:46.965Z,12.70
2018-12-27T01:07:47.481Z,11.80
2018-12-27T01:08:46.904Z,13.50
2018-12-27T01:09:46.888Z,20.40
2018-12-27T01:10:46.923Z,11.30
2018-12-27T01:11:46.977Z,7.80
2018-12-27T01:12:46.846Z,8.60
2018-12-27T01:13:46.841Z,9.60
2018-12-27T01:14:46.850Z,11.80
2018-12-27T01:15:46.812Z,15.00
2018-12-27T01:16:46.890Z,13.10
2018-12-27T01:17:46.790Z,8.50
2018-12-27T01:18:46.868Z,14.80
2018-12-27T01:19:46.780Z,16.50
2018-12-27T01:20:46.766Z,9.00
2018-12-27T01:21:46.774Z,12.20
2018-12-27T01:22:46.728Z,15.30
2018-12-27T01:23:46.719Z,17.90
2018-12-27T01:24:46.708Z,12.40
2018-12-27T01:25:47.464Z,10.70
2018-12-27T01:26:46.707Z,9.20
2018-12-27T01:27:46.676Z,13.30
2018-12-27T01:28:46.665Z,13.00
2018-12-27T01:29:46.655Z,9.30
2018-12-27T01:30:46.644Z,9.70
2018-12-27T01:31:50.562Z,11.20
2018-12-27T01:32:46.619Z,12.80
2018-12-27T01:33:46.605Z,14.00
2018-12-27T01:34:56.405Z,13.00
2018-12-27T01:35:58.441Z,17.40
2018-12-27T01:36:46.711Z,12.10
2018-12-27T01:37:46.690Z,12.60
2018-12-27T01:38:46.624Z,11.50
2018-12-27T01:39:46.762Z,18.10
2018-12-27T01:40:56.423Z,11.90
2018-12-27T01:41:46.606Z,17.00
2018-12-27T01:42:46.621Z,9.90
2018-12-27T01:43:46.582Z,10.10
2018-12-27T01:44:46.717Z,16.40
2018-12-27T01:45:46.527Z,12.30
2018-12-27T01:46:46.454Z,16.00
2018-12-27T01:47:46.469Z,11.60
2018-12-27T01:48:46.485Z,14.40
2018-12-27T01:49:46.435Z,7.20
2018-12-27T01:50:46.416Z,12.30
2018-12-27T01:51:46.410Z,13.00
2018-12-27T01:52:46.439Z,8.70
2018-12-27T01:53:46.376Z,10.50
2018-12-27T01:54:46.363Z,16.10
2018-12-27T01:55:46.362Z,9.10
2018-12-27T01:56:56.182Z,12.60
2018-12-27T01:57:46.433Z,15.00
2018-12-27T01:58:46.440Z,15.50
2018-12-27T01:59:46.375Z,9.10
2018-12-27T02:00:47.221Z,15.40
2018-12-27T02:01:46.358Z,10.90
2018-12-27T02:02:46.295Z,9.50
2018-12-27T02:03:46.276Z,13.60
2018-12-27T02:04:46.265Z,14.00
2018-12-27T02:05:46.260Z,15.00
2018-12-27T02:07:18.198Z,12.60
2018-12-27T02:07:46.239Z,12.40
2018-12-27T02:08:46.210Z,11.00
2018-12-27T02:09:47.079Z,11.60
2018-12-27T02:10:48.152Z,9.50
2018-12-27T02:11:46.212Z,8.10
2018-12-27T02:12:46.163Z,11.50
2018-12-27T02:13:46.181Z,15.80
2018-12-27T02:14:46.183Z,10.90
2018-12-27T02:15:46.135Z,14.70
2018-12-27T02:16:46.166Z,8.50
2018-12-27T02:17:46.112Z,8.30
2018-12-27T02:18:47.081Z,9.40
2018-12-27T02:19:46.091Z,12.10
2018-12-27T02:20:46.081Z,7.90
2018-12-27T02:21:46.114Z,11.90
2018-12-27T02:22:46.060Z,8.50
2018-12-27T02:23:46.051Z,13.20
2018-12-27T02:24:46.064Z,7.70
2018-12-27T02:25:46.040Z,8.10
2018-12-27T02:26:46.009Z,10.50
2018-12-27T02:27:46.084Z,10.40
2018-12-27T02:28:46.047Z,15.00
2018-12-27T02:29:45.990Z,8.50
2018-12-27T02:30:45.959Z,7.70
2018-12-27T02:31:45.958Z,6.70
2018-12-27T02:32:45.953Z,10.00
2018-12-27T02:33:45.969Z,11.50
2018-12-27T02:34:45.954Z,13.60
2018-12-27T02:35:45.944Z,12.40
2018-12-27T02:36:45.899Z,8.20
2018-12-27T02:37:45.893Z,7.30
2018-12-27T02:38:45.867Z,7.50
2018-12-27T02:39:56.610Z,11.50
2018-12-27T02:40:45.975Z,21.10
2018-12-27T02:41:45.915Z,9.90
2018-12-27T02:42:45.924Z,14.80
2018-12-27T02:43:45.881Z,9.10
2018-12-27T02:44:45.848Z,20.70
2018-12-27T02:45:45.810Z,7.70
2018-12-27T02:46:45.806Z,8.00
2018-12-27T02:47:45.771Z,11.40
2018-12-27T02:48:45.775Z,10.80
2018-12-27T02:49:54.783Z,12.70
2018-12-27T02:50:54.476Z,10.20
2018-12-27T02:51:45.775Z,12.40
2018-12-27T02:52:45.806Z,11.10
2018-12-27T02:53:54.476Z,8.40
2018-12-27T02:54:45.785Z,10.80
2018-12-27T02:55:45.746Z,10.00
2018-12-27T02:56:45.729Z,9.10
2018-12-27T02:57:55.611Z,9.80
2018-12-27T02:58:45.722Z,9.90
2018-12-27T02:59:45.692Z,9.10
2018-12-27T03:00:45.666Z,10.10
2018-12-27T03:01:45.653Z,11.70
2018-12-27T03:02:45.665Z,9.70
2018-12-27T03:03:45.759Z,7.10
2018-12-27T03:04:47.298Z,11.70
2018-12-27T03:05:45.572Z,9.60
2018-12-27T03:06:45.581Z,11.40
2018-12-27T03:07:45.540Z,16.20
2018-12-27T03:08:57.146Z,10.30
2018-12-27T03:09:45.628Z,15.80
2018-12-27T03:10:45.591Z,12.70
2018-12-27T03:11:45.548Z,8.10
2018-12-27T03:12:45.510Z,13.50
2018-12-27T03:13:45.475Z,7.00
2018-12-27T03:14:45.498Z,7.80
2018-12-27T03:15:45.484Z,8.00
2018-12-27T03:16:45.483Z,8.10
2018-12-27T03:17:45.452Z,7.40
2018-12-27T03:18:45.423Z,6.50
2018-12-27T03:19:45.410Z,8.00
2018-12-27T03:20:45.400Z,9.30
2018-12-27T03:21:45.801Z,5.40
2018-12-27T03:22:46.307Z,7.20
2018-12-27T03:23:45.361Z,9.10
2018-12-27T03:24:45.366Z,9.00
2018-12-27T03:25:45.349Z,7.80
2018-12-27T03:26:45.371Z,7.80
2018-12-27T03:27:45.332Z,7.10
2018-12-27T03:28:45.334Z,7.10
2018-12-27T03:29:45.299Z,6.80
2018-12-27T03:30:56.791Z,10.00
2018-12-27T03:31:45.351Z,6.90
2018-12-27T03:32:45.369Z,6.40
2018-12-27T03:33:52.648Z,6.70
2018-12-27T03:34:46.400Z,5.50
2018-12-27T03:35:45.243Z,5.60
2018-12-27T03:36:45.221Z,6.00
2018-12-27T03:37:45.246Z,8.60
2018-12-27T03:38:45.200Z,10.00
2018-12-27T03:39:45.199Z,7.90
2018-12-27T03:40:45.198Z,11.40
2018-12-27T03:41:45.169Z,9.70
2018-12-27T03:42:45.172Z,10.70
2018-12-27T03:43:45.153Z,8.60
2018-12-27T03:44:45.142Z,8.80
2018-12-27T03:45:45.150Z,8.60
2018-12-27T03:46:45.109Z,8.00
2018-12-27T03:47:45.129Z,8.90
2018-12-27T03:48:45.097Z,10.30
2018-12-27T03:49:45.085Z,8.30
2018-12-27T03:50:45.081Z,8.10
2018-12-27T03:51:45.077Z,9.90
2018-12-27T03:52:45.059Z,5.70
2018-12-27T03:53:45.033Z,8.10
2018-12-27T03:54:45.024Z,5.30
2018-12-27T03:55:45.819Z,5.40
2018-12-27T03:56:53.758Z,5.50
2018-12-27T03:57:56.035Z,6.10
2018-12-27T03:58:45.030Z,4.30
2018-12-27T03:59:45.007Z,4.00
2018-12-27T04:00:45.007Z,3.90
2018-12-27T04:01:44.995Z,4.80
2018-12-27T04:02:45.019Z,5.40
2018-12-27T04:03:45.135Z,5.50
2018-12-27T04:04:53.610Z,6.20
2018-12-27T04:05:45.014Z,6.20
2018-12-27T04:06:44.921Z,4.80
2018-12-27T04:07:44.938Z,5.10
2018-12-27T04:08:44.933Z,3.70
2018-12-27T04:09:44.913Z,6.70
2018-12-27T04:10:44.915Z,5.00
2018-12-27T04:11:44.904Z,6.60
2018-12-27T04:12:44.937Z,5.20
2018-12-27T04:14:57.574Z,6.20
2018-12-27T04:15:57.659Z,4.50
2018-12-27T04:16:57.518Z,3.90
2018-12-27T04:17:57.756Z,5.00
2018-12-27T04:18:57.571Z,4.00
2018-12-27T04:19:57.422Z,3.90
2018-12-27T04:20:57.379Z,3.50
2018-12-27T04:22:06.075Z,4.00
2018-12-27T04:22:57.431Z,4.40
2018-12-27T04:23:57.443Z,4.30
2018-12-27T04:25:06.009Z,4.60
2018-12-27T04:25:57.392Z,4.80
2018-12-27T04:27:06.838Z,4.70
2018-12-27T04:27:57.371Z,5.00
2018-12-27T04:28:57.318Z,4.60
2018-12-27T04:29:57.343Z,3.40
2018-12-27T04:30:57.288Z,3.70
2018-12-27T04:31:57.345Z,4.00
2018-12-27T04:33:06.761Z,4.20
2018-12-27T04:33:57.296Z,4.40
2018-12-27T04:35:06.788Z,4.20
2018-12-27T04:35:57.302Z,4.10
2018-12-27T04:36:57.292Z,3.40
2018-12-27T04:37:57.200Z,3.60
2018-12-27T04:38:57.240Z,4.80
2018-12-27T04:39:57.233Z,3.20
2018-12-27T04:40:57.312Z,4.10
2018-12-27T04:41:57.194Z,3.30
2018-12-27T04:42:57.130Z,3.10
2018-12-27T04:43:57.143Z,3.70
2018-12-27T04:44:57.133Z,4.10
2018-12-27T04:45:57.923Z,3.80
2018-12-27T04:46:57.949Z,2.80
2018-12-27T04:48:06.588Z,3.10
2018-12-27T04:48:57.132Z,4.00
2018-12-27T04:49:57.154Z,3.20
2018-12-27T04:50:57.516Z,3.50
2018-12-27T04:51:57.046Z,3.30
2018-12-27T04:52:57.094Z,3.50
2018-12-27T04:54:05.717Z,3.80
2018-12-27T04:54:57.116Z,3.90
2018-12-27T04:55:57.067Z,3.70
2018-12-27T04:56:57.036Z,3.90
2018-12-27T04:57:58.283Z,3.70
2018-12-27T04:58:56.984Z,4.50
2018-12-27T04:59:56.944Z,8.00
2018-12-27T05:00:57.518Z,3.40
2018-12-27T05:01:57.914Z,3.90
2018-12-27T05:02:56.906Z,7.20
2018-12-27T05:04:09.254Z,7.20
2018-12-27T05:04:56.966Z,3.60
2018-12-27T05:05:57.102Z,2.90
2018-12-27T05:06:56.916Z,3.00
2018-12-27T05:07:56.908Z,4.40
2018-12-27T05:08:56.951Z,3.40
2018-12-27T05:09:56.850Z,4.60
2018-12-27T05:10:56.852Z,4.10
2018-12-27T05:12:06.602Z,3.80
2018-12-27T05:12:56.836Z,3.70
2018-12-27T05:13:58.258Z,5.10
2018-12-27T05:15:06.534Z,4.40
2018-12-27T05:15:56.806Z,4.00
2018-12-27T05:16:56.835Z,4.10
2018-12-27T05:17:56.808Z,5.50
2018-12-27T05:18:57.610Z,3.40
2018-12-27T05:19:56.735Z,3.50
2018-12-27T05:20:56.743Z,4.00
2018-12-27T05:21:56.711Z,2.90
2018-12-27T05:22:56.700Z,2.70
2018-12-27T05:23:56.684Z,2.70
2018-12-27T05:24:56.667Z,4.00
2018-12-27T05:25:56.693Z,4.80
2018-12-27T05:26:56.677Z,7.00
2018-12-27T05:27:56.660Z,3.60
2018-12-27T05:28:56.656Z,2.90
2018-12-27T05:29:56.655Z,3.00
2018-12-27T05:30:56.628Z,4.20
2018-12-27T05:31:57.115Z,4.00
2018-12-27T05:32:56.587Z,4.40
2018-12-27T05:33:56.615Z,3.80
2018-12-27T05:34:57.180Z,3.00
2018-12-27T05:35:56.564Z,4.60
2018-12-27T05:36:56.544Z,4.30
2018-12-27T05:37:56.563Z,7.00
2018-12-27T05:38:56.526Z,6.40
2018-12-27T05:39:56.546Z,7.30
2018-12-27T05:40:56.504Z,7.00
2018-12-27T05:41:56.486Z,5.90
2018-12-27T05:42:56.546Z,7.10
2018-12-27T05:43:56.514Z,5.90
2018-12-27T05:44:56.483Z,7.40
2018-12-27T05:45:56.484Z,6.70
2018-12-27T05:46:57.151Z,6.60
2018-12-27T05:47:57.259Z,5.40
2018-12-27T05:48:56.420Z,6.60
2018-12-27T05:50:07.925Z,5.50
2018-12-27T05:50:56.423Z,5.00
2018-12-27T05:51:56.398Z,4.80
2018-12-27T05:52:56.508Z,7.90
2018-12-27T05:53:56.446Z,4.60
2018-12-27T05:54:56.418Z,4.70
2018-12-27T05:55:56.387Z,3.40
2018-12-27T05:56:56.497Z,4.80
2018-12-27T05:57:56.321Z,3.40
2018-12-27T05:58:56.279Z,3.90
2018-12-27T06:00:05.852Z,3.60
2018-12-27T06:02:08.561Z,3.90
2018-12-27T06:03:08.497Z,3.50
2018-12-27T06:04:08.400Z,3.50
2018-12-27T06:05:08.422Z,4.90
2018-12-27T06:06:08.415Z,3.70
2018-12-27T06:07:08.612Z,5.70
2018-12-27T06:08:08.554Z,3.90
2018-12-27T06:09:08.369Z,4.50
2018-12-27T06:10:08.309Z,7.00
2018-12-27T06:11:18.885Z,4.50
2018-12-27T06:12:08.352Z,4.50
2018-12-27T06:13:08.299Z,4.50
2018-12-27T06:14:09.291Z,3.60
2018-12-27T06:15:08.883Z,4.70
2018-12-27T06:16:08.273Z,4.00
2018-12-27T06:17:08.384Z,4.10
2018-12-27T06:18:08.199Z,5.60
2018-12-27T06:19:20.378Z,3.60
2018-12-27T06:20:08.820Z,4.20
2018-12-27T06:21:16.861Z,3.60
2018-12-27T06:22:08.202Z,4.40
2018-12-27T06:23:08.191Z,10.40
2018-12-27T06:24:08.232Z,7.90
2018-12-27T06:25:09.301Z,3.80
2018-12-27T06:26:08.265Z,5.10
2018-12-27T06:27:08.831Z,8.10
2018-12-27T06:28:09.258Z,3.60
2018-12-27T06:29:08.092Z,4.70
2018-12-27T06:30:08.056Z,4.20
2018-12-27T06:31:08.080Z,4.60
2018-12-27T06:32:08.035Z,4.10
2018-12-27T06:33:09.256Z,7.40
2018-12-27T06:34:08.017Z,6.90
2018-12-27T06:35:07.998Z,9.00
2018-12-27T06:36:09.023Z,4.10
2018-12-27T06:37:07.983Z,16.40
2018-12-27T06:38:07.996Z,7.70
2018-12-27T06:39:07.953Z,19.20
2018-12-27T06:40:07.944Z,41.40
2018-12-27T06:41:07.935Z,30.30
2018-12-27T06:42:19.961Z,17.60
2018-12-27T06:43:07.964Z,11.80
2018-12-27T06:44:07.945Z,23.50
2018-12-27T06:45:08.066Z,19.90
2018-12-27T06:46:07.910Z,32.10
2018-12-27T06:47:07.865Z,35.80
2018-12-27T06:48:08.870Z,40.50
2018-12-27T06:49:07.845Z,40.10
2018-12-27T06:50:07.832Z,36.20
2018-12-27T06:51:07.816Z,31.90
2018-12-27T06:52:08.357Z,29.50
2018-12-27T06:53:21.436Z,30.50
2018-12-27T06:54:07.868Z,31.50
2018-12-27T06:55:07.837Z,27.20
2018-12-27T06:56:08.454Z,21.30
2018-12-27T06:57:07.882Z,16.80
2018-12-27T06:58:07.804Z,10.40
2018-12-27T06:59:08.729Z,5.60
2018-12-27T07:00:07.716Z,6.30
2018-12-27T07:01:07.736Z,5.80
2018-12-27T07:02:07.699Z,4.50
2018-12-27T07:03:18.999Z,7.00
2018-12-27T07:04:07.741Z,3.50
2018-12-27T07:05:07.755Z,3.10
2018-12-27T07:06:07.715Z,3.90
2018-12-27T07:07:07.807Z,7.60
2018-12-27T07:08:07.645Z,9.00
2018-12-27T07:09:07.935Z,8.10
2018-12-27T07:10:07.623Z,9.70
2018-12-27T07:11:07.593Z,13.10
2018-12-27T07:12:07.591Z,7.30
2018-12-27T07:13:08.460Z,5.50
2018-12-27T07:14:16.306Z,8.20
2018-12-27T07:15:08.489Z,17.40
2018-12-27T07:16:07.597Z,11.80
2018-12-27T07:18:30.557Z,10.50
2018-12-27T07:19:31.404Z,15.70
2018-12-27T07:20:30.396Z,11.60
2018-12-27T07:21:39.907Z,17.40
2018-12-27T07:22:30.456Z,17.60
2018-12-27T07:23:31.401Z,14.70
2018-12-27T07:24:39.072Z,14.70
2018-12-27T07:25:30.364Z,7.10
2018-12-27T07:26:30.348Z,11.30
2018-12-27T07:27:30.372Z,7.30
2018-12-27T07:28:30.329Z,7.60
2018-12-27T07:29:32.352Z,9.10
2018-12-27T07:30:31.357Z,12.20
2018-12-27T07:31:30.256Z,12.30
2018-12-27T07:32:30.226Z,10.90
2018-12-27T07:33:41.301Z,13.00
2018-12-27T07:34:30.236Z,15.40
2018-12-27T07:35:42.487Z,16.70
2018-12-27T07:36:30.285Z,38.50
2018-12-27T07:37:39.465Z,31.40
2018-12-27T07:38:30.852Z,28.40
2018-12-27T07:39:30.228Z,48.10
2018-12-27T07:40:39.185Z,12.50
2018-12-27T07:41:31.397Z,7.70
2018-12-27T07:42:30.212Z,25.00
2018-12-27T07:44:49.691Z,12.80
2018-12-27T07:47:00.809Z,10.20
2018-12-27T07:48:00.733Z,16.30
2018-12-27T07:49:02.529Z,17.00
2018-12-27T07:50:00.645Z,13.80
2018-12-27T07:51:09.291Z,24.70
2018-12-27T07:52:09.431Z,16.70
2018-12-27T07:53:00.604Z,14.60
2018-12-27T07:54:00.589Z,20.80
2018-12-27T07:55:00.603Z,44.30
2018-12-27T07:57:24.449Z,10.20
2018-12-27T07:58:24.331Z,9.60
2018-12-27T07:59:26.920Z,42.50
2018-12-27T08:00:24.967Z,21.00
2018-12-27T08:01:24.295Z,22.70
2018-12-27T08:02:35.161Z,29.10
2018-12-27T08:03:25.427Z,34.20
2018-12-27T08:04:25.655Z,15.90
2018-12-27T08:05:25.455Z,11.80
2018-12-27T08:06:24.307Z,11.70
2018-12-27T08:07:32.817Z,19.80
2018-12-27T08:08:24.201Z,12.40
2018-12-27T08:09:35.710Z,27.00
2018-12-27T08:10:24.174Z,15.20
2018-12-27T08:11:24.155Z,14.50
2018-12-27T08:12:24.150Z,8.60
2018-12-27T08:13:24.591Z,10.70
2018-12-27T08:14:24.190Z,11.50
2018-12-27T08:15:24.053Z,35.80
2018-12-27T08:16:24.030Z,38.40
2018-12-27T08:17:25.021Z,14.00
2018-12-27T08:18:33.628Z,13.00
2018-12-27T08:19:24.067Z,19.30
2018-12-27T08:20:34.592Z,8.50
2018-12-27T08:21:34.649Z,30.30
2018-12-27T08:22:34.785Z,15.70
2018-12-27T08:23:24.050Z,9.70
2018-12-27T08:24:33.465Z,15.80
2018-12-27T08:25:35.401Z,12.90
2018-12-27T08:26:24.774Z,12.00
2018-12-27T08:27:24.034Z,11.50
2018-12-27T08:28:23.980Z,14.90
2018-12-27T08:29:33.718Z,19.10
2018-12-27T08:30:23.996Z,21.10
2018-12-27T08:31:23.916Z,17.40
2018-12-27T08:32:23.929Z,13.80
2018-12-27T08:33:33.458Z,22.30
2018-12-27T08:34:32.519Z,23.80
2018-12-27T08:35:23.872Z,23.20
2018-12-27T08:36:23.854Z,23.00
2018-12-27T08:37:23.829Z,33.10
2018-12-27T08:38:33.572Z,27.60
2018-12-27T08:39:23.869Z,35.80
2018-12-27T08:40:23.842Z,32.00
2018-12-27T08:41:24.497Z,25.10
2018-12-27T08:42:23.886Z,17.00
2018-12-27T08:43:23.790Z,20.70
2018-12-27T08:44:37.841Z,23.60
2018-12-27T08:45:23.803Z,19.70
2018-12-27T08:46:23.755Z,18.20
2018-12-27T08:47:23.734Z,16.50
2018-12-27T08:48:23.744Z,24.20
2018-12-27T08:49:23.750Z,22.80
2018-12-27T08:50:32.373Z,21.70
2018-12-27T08:51:23.688Z,23.00
2018-12-27T08:52:34.245Z,34.00
2018-12-27T08:53:34.231Z,39.40
2018-12-27T08:54:24.574Z,24.80
2018-12-27T08:55:34.489Z,29.60
2018-12-27T08:56:23.643Z,25.30
2018-12-27T08:57:33.123Z,24.60
2018-12-27T08:58:23.636Z,29.60
2018-12-27T08:59:33.715Z,22.60
2018-12-27T09:00:23.555Z,20.20
2018-12-27T09:01:32.225Z,21.90
2018-12-27T09:02:32.257Z,25.10
2018-12-27T09:03:33.546Z,25.30
2018-12-27T09:04:23.585Z,18.60
2018-12-27T09:05:23.538Z,21.80
2018-12-27T09:06:33.052Z,23.50
2018-12-27T09:07:32.203Z,18.50
2018-12-27T09:08:33.045Z,19.20
2018-12-27T09:10:54.534Z,10.00
2018-12-27T09:11:53.552Z,14.40
2018-12-27T09:13:03.050Z,10.10
2018-12-27T09:14:47.534Z,5.90
2018-12-27T09:16:56.712Z,4.10
2018-12-27T09:19:08.815Z,5.10
2018-12-27T09:20:17.318Z,5.50
2018-12-27T09:21:18.217Z,5.50
2018-12-27T09:22:08.673Z,5.60
2018-12-27T09:23:20.256Z,4.60
2018-12-27T09:24:20.260Z,6.80
2018-12-27T09:25:18.130Z,18.90
2018-12-27T09:26:08.644Z,7.10
2018-12-27T09:29:43.027Z,5.00
2018-12-27T09:31:57.176Z,9.10
2018-12-27T09:32:57.059Z,12.40
2018-12-27T09:34:07.052Z,11.60
2018-12-27T09:34:57.003Z,6.50
2018-12-27T09:36:06.477Z,7.70
2018-12-27T09:36:56.961Z,13.20
2018-12-27T09:38:08.179Z,8.10
2018-12-27T09:39:06.498Z,8.90
2018-12-27T09:40:06.818Z,13.00
2018-12-27T09:40:56.921Z,11.70
2018-12-27T09:41:56.965Z,13.50
2018-12-27T09:43:07.973Z,14.20
2018-12-27T09:45:09.146Z,18.40
2018-12-27T09:46:09.455Z,25.10
2018-12-27T09:47:19.734Z,23.90
2018-12-27T09:48:18.675Z,17.80
2018-12-27T09:49:17.638Z,26.30
2018-12-27T09:50:08.982Z,33.00
2018-12-27T09:51:18.503Z,25.70
2018-12-27T09:52:25.061Z,28.40
2018-12-27T09:53:08.926Z,19.10
2018-12-27T09:54:08.939Z,14.60
2018-12-27T09:56:20.270Z,23.00
2018-12-27T09:57:30.709Z,22.10
2018-12-27T09:59:32.834Z,18.20
2018-12-27T10:01:43.082Z,7.90
2018-12-27T10:03:54.247Z,5.20
2018-12-27T10:05:04.158Z,5.00
2018-12-27T10:06:06.306Z,4.70
2018-12-27T10:06:54.210Z,9.60
2018-12-27T10:07:57.486Z,38.60
2018-12-27T10:08:55.145Z,29.30
2018-12-27T10:09:54.192Z,14.70
2018-12-27T10:10:55.082Z,38.20
2018-12-27T10:11:54.088Z,37.20
2018-12-27T10:12:54.025Z,17.10
2018-12-27T10:13:55.007Z,12.50
2018-12-27T10:14:54.047Z,37.40
2018-12-27T10:15:54.068Z,33.00
2018-12-27T10:16:55.453Z,15.50
2018-12-27T10:17:55.066Z,20.80
2018-12-27T10:20:06.153Z,19.60
2018-12-27T10:21:06.080Z,14.50
2018-12-27T10:22:06.047Z,13.20
2018-12-27T10:23:06.029Z,6.90
2018-12-27T10:24:06.019Z,4.30
2018-12-27T10:25:06.094Z,4.70
2018-12-27T10:26:06.003Z,4.40
2018-12-27T10:27:06.097Z,4.30
2018-12-27T10:28:05.944Z,4.90
2018-12-27T10:29:05.920Z,4.70
2018-12-27T10:30:05.939Z,3.90
2018-12-27T10:31:05.903Z,4.50
2018-12-27T10:32:05.906Z,4.40
2018-12-27T10:33:05.872Z,3.10
2018-12-27T10:34:05.883Z,2.70
2018-12-27T10:35:05.850Z,2.60
2018-12-27T10:36:05.840Z,3.40
2018-12-27T10:37:05.908Z,3.50
2018-12-27T10:38:05.835Z,2.40
2018-12-27T10:39:05.800Z,5.40
2018-12-27T10:40:05.885Z,6.50
2018-12-27T10:41:05.788Z,3.80
2018-12-27T10:42:05.770Z,3.10
2018-12-27T10:43:05.772Z,3.80
2018-12-27T10:44:05.747Z,3.50
2018-12-27T10:45:05.755Z,4.40
2018-12-27T10:46:05.746Z,8.40
2018-12-27T10:47:05.723Z,5.60
2018-12-27T10:48:05.730Z,8.20
2018-12-27T10:49:05.689Z,12.60
2018-12-27T10:50:05.677Z,8.70
2018-12-27T10:51:05.686Z,8.10
2018-12-27T10:52:05.651Z,7.30
2018-12-27T10:53:05.756Z,12.50
2018-12-27T10:54:05.691Z,14.40
2018-12-27T10:55:05.619Z,15.60
2018-12-27T10:56:05.613Z,13.40
2018-12-27T10:57:05.621Z,8.30
2018-12-27T10:58:05.589Z,9.60
2018-12-27T10:59:05.596Z,9.70
2018-12-27T11:00:05.580Z,9.20
2018-12-27T11:01:05.552Z,8.20
2018-12-27T11:02:05.546Z,6.60
2018-12-27T11:03:05.555Z,4.60
2018-12-27T11:04:05.552Z,4.20
2018-12-27T11:05:05.531Z,3.20
2018-12-27T11:06:05.503Z,3.30
2018-12-27T11:07:05.497Z,3.90
2018-12-27T11:08:05.478Z,5.40
2018-12-27T11:09:05.490Z,3.10
2018-12-27T11:10:05.451Z,5.00
2018-12-27T11:11:05.464Z,4.10
2018-12-27T11:12:05.449Z,5.90
2018-12-27T11:13:05.426Z,4.20
2018-12-27T11:14:05.427Z,3.80
2018-12-27T11:15:05.401Z,5.80
2018-12-27T11:16:05.395Z,3.60
2018-12-27T11:17:05.400Z,4.70
2018-12-27T11:18:05.363Z,5.20
2018-12-27T11:19:05.368Z,6.40
2018-12-27T11:20:05.345Z,3.80
2018-12-27T11:21:05.338Z,3.30
2018-12-27T11:22:05.321Z,3.50
2018-12-27T11:23:05.431Z,3.70
2018-12-27T11:24:05.356Z,5.70
2018-12-27T11:25:05.300Z,3.70
2018-12-27T11:26:05.277Z,3.50
2018-12-27T11:27:05.268Z,5.10
2018-12-27T11:28:05.257Z,5.10
2018-12-27T11:29:05.250Z,5.50
2018-12-27T11:30:05.231Z,5.00
2018-12-27T11:31:05.240Z,3.20
2018-12-27T11:32:05.208Z,2.70
2018-12-27T11:33:05.233Z,3.40
2018-12-27T11:34:05.198Z,3.00
2018-12-27T11:35:05.178Z,3.40
2018-12-27T11:36:05.159Z,2.80
2018-12-27T11:37:06.125Z,4.30
2018-12-27T11:38:05.142Z,5.70
2018-12-27T11:39:05.151Z,6.10
2018-12-27T11:40:05.122Z,13.10
2018-12-27T11:41:05.106Z,8.80
2018-12-27T11:42:05.104Z,6.00
2018-12-27T11:43:05.112Z,6.20
2018-12-27T11:44:05.280Z,3.80
2018-12-27T11:45:05.063Z,4.60
2018-12-27T11:46:05.046Z,4.10
2018-12-27T11:47:05.046Z,2.80
2018-12-27T11:48:05.038Z,2.80
2018-12-27T11:49:05.081Z,2.20
2018-12-27T11:50:05.002Z,2.00
2018-12-27T11:51:04.999Z,2.40
2018-12-27T11:52:04.987Z,2.30
2018-12-27T11:53:04.976Z,2.30
2018-12-27T11:54:04.983Z,2.90
2018-12-27T11:55:04.972Z,2.20
2018-12-27T11:56:04.935Z,2.10
2018-12-27T11:57:04.929Z,2.30
2018-12-27T11:58:04.920Z,2.10
2018-12-27T11:59:04.913Z,3.20
2018-12-27T12:00:04.896Z,2.00
2018-12-27T12:01:04.899Z,2.60
2018-12-27T12:02:04.868Z,2.30
2018-12-27T12:03:04.864Z,2.30
2018-12-27T12:04:04.865Z,4.50
2018-12-27T12:05:04.837Z,6.30
2018-12-27T12:06:04.831Z,8.20
2018-12-27T12:07:04.846Z,4.60
2018-12-27T12:08:04.806Z,3.40
2018-12-27T12:09:04.811Z,3.90
2018-12-27T12:10:04.783Z,3.40
2018-12-27T12:11:04.769Z,4.10
2018-12-27T12:12:04.760Z,6.20
2018-12-27T12:13:04.770Z,7.00
2018-12-27T12:14:04.767Z,9.10
2018-12-27T12:15:04.725Z,6.70
2018-12-27T12:16:04.713Z,16.40
2018-12-27T12:17:04.705Z,19.30
2018-12-27T12:18:04.690Z,12.90
2018-12-27T12:19:04.716Z,26.10
2018-12-27T12:20:04.682Z,9.60
2018-12-27T12:21:04.655Z,25.50
2018-12-27T12:22:04.645Z,27.60
2018-12-27T12:23:04.637Z,29.10
2018-12-27T12:24:04.635Z,6.20
2018-12-27T12:25:04.641Z,16.40
2018-12-27T12:26:04.610Z,8.10
2018-12-27T12:27:04.595Z,5.20
2018-12-27T12:28:04.578Z,3.70
2018-12-27T12:29:04.592Z,3.50
2018-12-27T12:30:04.561Z,5.10
2018-12-27T12:31:04.582Z,4.30
2018-12-27T12:32:04.535Z,4.30
2018-12-27T12:33:04.529Z,5.30
2018-12-27T12:34:04.513Z,4.00
2018-12-27T12:35:04.515Z,4.60
2018-12-27T12:36:10.735Z,3.70
2018-12-27T12:37:05.491Z,4.70
2018-12-27T12:38:04.465Z,4.10
2018-12-27T12:39:04.459Z,3.20
2018-12-27T12:40:04.472Z,4.30
2018-12-27T12:41:04.438Z,3.90
2018-12-27T12:42:04.443Z,5.20
2018-12-27T12:43:04.435Z,3.30
2018-12-27T12:44:04.402Z,3.60
2018-12-27T12:45:04.391Z,4.00
2018-12-27T12:46:04.390Z,3.90
2018-12-27T12:47:04.367Z,3.50
2018-12-27T12:48:04.356Z,3.40
2018-12-27T12:49:04.387Z,3.40
2018-12-27T12:50:04.329Z,2.80
2018-12-27T12:51:04.338Z,3.80
2018-12-27T12:52:04.313Z,3.20
2018-12-27T12:53:04.298Z,2.90
2018-12-27T12:54:04.292Z,3.20
2018-12-27T12:55:04.295Z,3.60
2018-12-27T12:56:04.292Z,3.40
2018-12-27T12:57:04.261Z,2.60
2018-12-27T12:58:04.251Z,4.00
2018-12-27T12:59:04.233Z,3.00
2018-12-27T13:00:04.223Z,3.30
2018-12-27T13:01:04.234Z,3.00
2018-12-27T13:02:04.213Z,2.70
2018-12-27T13:03:04.189Z,3.00
2018-12-27T13:04:04.175Z,2.90
2018-12-27T13:05:04.163Z,4.10
2018-12-27T13:06:04.152Z,3.50
2018-12-27T13:07:04.184Z,2.90
2018-12-27T13:08:04.128Z,3.50
2018-12-27T13:09:04.120Z,3.80
2018-12-27T13:10:04.114Z,2.80
2018-12-27T13:11:04.103Z,2.70
2018-12-27T13:12:04.100Z,2.70
2018-12-27T13:13:04.092Z,2.50
2018-12-27T13:14:04.073Z,2.20
2018-12-27T13:15:04.054Z,2.90
2018-12-27T13:16:04.041Z,2.30
2018-12-27T13:17:04.048Z,2.20
2018-12-27T13:18:04.090Z,2.10
2018-12-27T13:19:04.028Z,2.80
2018-12-27T13:20:03.996Z,2.50
2018-12-27T13:21:03.991Z,2.70
2018-12-27T13:22:03.997Z,2.30
2018-12-27T13:23:03.969Z,2.00
2018-12-27T13:24:03.958Z,2.30
2018-12-27T13:25:03.961Z,1.70
2018-12-27T13:26:03.931Z,1.90
2018-12-27T13:27:03.942Z,2.20
2018-12-27T13:28:03.909Z,3.00
2018-12-27T13:29:03.898Z,2.70
2018-12-27T13:30:03.886Z,2.50
2018-12-27T13:31:03.893Z,2.80
2018-12-27T13:32:03.906Z,2.50